createdAt,value
2022-12-20T00:01:32.081Z,100949.56
2022-12-20T00:04:03.665Z,100947.59
2022-12-20T00:06:31.846Z,100934.97
2022-12-20T00:09:01.826Z,100938.25
2022-12-20T00:11:30.144Z,100937.66
2022-12-20T00:13:58.776Z,100947.44
2022-12-20T00:16:28.329Z,100940.75
2022-12-20T00:18:59.030Z,100930.53
2022-12-20T00:21:26.990Z,100929.47
2022-12-20T00:23:57.804Z,100926.94
2022-12-20T00:26:29.647Z,100946.72
2022-12-20T00:28:57.490Z,100945.66
2022-12-20T00:31:27.289Z,100940.44
2022-12-20T00:33:57.462Z,100935.38
2022-12-20T00:36:27.332Z,100933.44
2022-12-20T00:38:56.676Z,100916.81
2022-12-20T00:41:28.007Z,100918.16
2022-12-20T00:43:55.869Z,100910.91
2022-12-20T00:46:25.104Z,100915.50
2022-12-20T00:48:54.670Z,100914.16
2022-12-20T00:51:25.481Z,100897.34
2022-12-20T00:53:53.790Z,100897.91
2022-12-20T00:56:21.357Z,100893.28
2022-12-20T00:58:49.821Z,100884.66
2022-12-20T01:01:22.060Z,100882.75
2022-12-20T01:03:52.310Z,100868.50
2022-12-20T01:06:21.396Z,100881.41
2022-12-20T01:08:48.929Z,100883.19
2022-12-20T01:11:23.468Z,100884.22
2022-12-20T01:13:54.007Z,100888.53
2022-12-20T01:16:34.955Z,100867.31
2022-12-20T01:19:03.254Z,100855.88
2022-12-20T01:21:31.193Z,100872.50
2022-12-20T01:23:58.818Z,100870.47
2022-12-20T01:26:28.989Z,100862.59
2022-12-20T01:28:59.223Z,100864.22
2022-12-20T01:31:28.480Z,100867.63
2022-12-20T01:33:56.818Z,100856.22
2022-12-20T01:36:29.468Z,100870.31
2022-12-20T01:39:03.413Z,100868.84
2022-12-20T01:41:33.530Z,100856.94
2022-12-20T01:44:04.150Z,100854.06
2022-12-20T01:46:39.821Z,100865.16
2022-12-20T01:49:31.048Z,100853.31
2022-12-20T01:52:10.828Z,100866.94
2022-12-20T01:54:46.793Z,100853.31
2022-12-20T01:57:21.095Z,100853.31
2022-12-20T01:59:52.050Z,100868.56
2022-12-20T02:02:21.434Z,100863.19
2022-12-20T02:04:49.065Z,100845.78
2022-12-20T02:07:22.978Z,100847.78
2022-12-20T02:09:51.578Z,100851.00
2022-12-20T02:12:25.404Z,100843.28
2022-12-20T02:15:10.117Z,100839.69
2022-12-20T02:17:43.780Z,100840.88
2022-12-20T02:20:29.737Z,100839.81
2022-12-20T02:23:33.568Z,100839.94
2022-12-20T02:26:39.331Z,100825.22
2022-12-20T02:29:18.968Z,100824.28
2022-12-20T02:31:59.125Z,100825.34
2022-12-20T02:34:29.168Z,100820.72
2022-12-20T02:36:56.923Z,100814.63
2022-12-20T02:39:27.215Z,100807.50
2022-12-20T02:42:04.721Z,100804.16
2022-12-20T02:44:52.063Z,100803.09
2022-12-20T02:47:31.025Z,100801.88
2022-12-20T02:49:59.644Z,100795.66
2022-12-20T02:52:31.249Z,100798.59
2022-12-20T02:55:01.942Z,100798.69
2022-12-20T02:57:35.430Z,100790.84
2022-12-20T03:00:10.648Z,100792.13
2022-12-20T03:02:58.200Z,100789.00
2022-12-20T03:05:27.627Z,100789.75
2022-12-20T03:07:55.869Z,100780.66
2022-12-20T03:10:26.305Z,100784.75
2022-12-20T03:12:54.038Z,100772.28
2022-12-20T03:15:21.723Z,100765.84
2022-12-20T03:17:52.805Z,100768.97
2022-12-20T03:20:20.493Z,100751.50
2022-12-20T03:22:48.235Z,100752.06
2022-12-20T03:25:15.949Z,100745.00
2022-12-20T03:27:43.603Z,100742.63
2022-12-20T03:30:11.639Z,100739.06
2022-12-20T03:32:39.105Z,100742.19
2022-12-20T03:35:07.656Z,100734.63
2022-12-20T03:37:38.996Z,100725.06
2022-12-20T03:40:08.576Z,100737.50
2022-12-20T03:42:36.250Z,100734.81
2022-12-20T03:45:05.146Z,100726.38
2022-12-20T03:47:33.151Z,100720.94
2022-12-20T03:50:01.013Z,100713.53
2022-12-20T03:52:32.708Z,100715.69
2022-12-20T03:55:00.843Z,100707.84
2022-12-20T03:57:37.716Z,100711.22
2022-12-20T04:00:12.959Z,100703.78
2022-12-20T04:02:43.325Z,100709.47
2022-12-20T04:05:13.245Z,100706.16
2022-12-20T04:07:41.162Z,100687.13
2022-12-20T04:10:09.179Z,100684.88
2022-12-20T04:12:37.415Z,100686.78
2022-12-20T04:15:09.000Z,100682.66
2022-12-20T04:17:38.247Z,100680.47
2022-12-20T04:20:19.245Z,100675.63
2022-12-20T04:22:52.544Z,100677.88
2022-12-20T04:25:21.643Z,100678.94
2022-12-20T04:27:49.453Z,100671.69
2022-12-20T04:30:17.020Z,100670.97
2022-12-20T04:32:44.651Z,100667.41
2022-12-20T04:35:12.167Z,100659.56
2022-12-20T04:37:42.691Z,100661.34
2022-12-20T04:40:10.901Z,100660.84
2022-12-20T04:42:49.826Z,100658.19
2022-12-20T04:45:18.271Z,100662.06
2022-12-20T04:47:46.733Z,100650.25
2022-12-20T04:50:19.226Z,100665.53
2022-12-20T04:53:05.770Z,100655.19
2022-12-20T04:55:38.592Z,100666.28
2022-12-20T04:58:08.078Z,100666.38
2022-12-20T05:00:38.827Z,100666.03
2022-12-20T05:03:20.000Z,100651.22
2022-12-20T05:05:47.936Z,100659.00
2022-12-20T05:08:15.519Z,100654.06
2022-12-20T05:10:44.756Z,100651.97
2022-12-20T05:13:13.720Z,100647.94
2022-12-20T05:15:44.775Z,100640.19
2022-12-20T05:18:13.230Z,100638.69
2022-12-20T05:21:18.440Z,100639.91
2022-12-20T05:24:07.277Z,100637.81
2022-12-20T05:26:48.559Z,100641.28
2022-12-20T05:29:18.510Z,100635.91
2022-12-20T05:31:47.742Z,100634.22
2022-12-20T05:34:16.620Z,100630.59
2022-12-20T05:36:49.292Z,100622.16
2022-12-20T05:39:17.517Z,100627.03
2022-12-20T05:41:47.474Z,100615.34
2022-12-20T05:44:15.403Z,100613.31
2022-12-20T05:46:46.454Z,100601.81
2022-12-20T05:49:19.056Z,100596.81
2022-12-20T05:51:46.832Z,100590.09
2022-12-20T05:54:25.681Z,100590.78
2022-12-20T05:57:31.725Z,100581.97
2022-12-20T05:59:59.593Z,100595.75
2022-12-20T06:02:27.175Z,100589.75
2022-12-20T06:05:04.749Z,100592.78
2022-12-20T06:07:32.297Z,100586.59
2022-12-20T06:10:01.075Z,100593.16
2022-12-20T06:12:42.529Z,100589.53
2022-12-20T06:15:10.987Z,100584.88
2022-12-20T06:17:39.924Z,100573.47
2022-12-20T06:20:08.309Z,100582.44
2022-12-20T06:22:37.672Z,100577.19
2022-12-20T06:25:06.158Z,100578.97
2022-12-20T06:27:36.352Z,100575.69
2022-12-20T06:30:33.795Z,100576.22
2022-12-20T06:33:13.545Z,100576.88
2022-12-20T06:35:41.090Z,100573.63
2022-12-20T06:38:08.817Z,100568.72
2022-12-20T06:40:36.746Z,100553.22
2022-12-20T06:43:04.577Z,100552.50
2022-12-20T06:45:37.593Z,100543.66
2022-12-20T06:48:09.542Z,100546.59
2022-12-20T06:50:40.983Z,100537.53
2022-12-20T06:53:11.255Z,100532.50
2022-12-20T06:55:39.568Z,100527.50
2022-12-20T06:58:07.833Z,100518.50
2022-12-20T07:00:37.944Z,100514.34
2022-12-20T07:03:05.585Z,100506.56
2022-12-20T07:05:35.540Z,100499.84
2022-12-20T07:08:04.628Z,100502.97
2022-12-20T07:10:34.661Z,100485.22
2022-12-20T07:13:02.211Z,100495.94
2022-12-20T07:15:29.743Z,100471.72
2022-12-20T07:17:57.358Z,100478.69
2022-12-20T07:20:24.892Z,100473.03
2022-12-20T07:22:52.502Z,100479.88
2022-12-20T07:25:20.112Z,100470.41
2022-12-20T07:27:50.092Z,100455.00
2022-12-20T07:30:19.392Z,100459.53
2022-12-20T07:32:47.444Z,100447.63
2022-12-20T07:35:16.093Z,100435.09
2022-12-20T07:37:43.689Z,100433.22
2022-12-20T07:40:12.512Z,100426.16
2022-12-20T07:42:46.315Z,100423.19
2022-12-20T07:45:16.496Z,100420.41
2022-12-20T07:47:44.113Z,100412.88
2022-12-20T07:50:12.061Z,100395.06
2022-12-20T07:52:42.095Z,100393.72
2022-12-20T07:55:11.191Z,100376.66
2022-12-20T07:57:51.811Z,100375.75
2022-12-20T08:00:19.605Z,100363.13
2022-12-20T08:03:02.338Z,100358.22
2022-12-20T08:05:30.230Z,100354.34
2022-12-20T08:07:59.799Z,100356.31
2022-12-20T08:10:28.974Z,100353.19
2022-12-20T08:12:57.845Z,100343.13
2022-12-20T08:15:26.803Z,100347.44
2022-12-20T08:17:54.415Z,100352.47
2022-12-20T08:20:22.307Z,100344.47
2022-12-20T08:22:49.968Z,100341.47
2022-12-20T08:25:17.525Z,100332.91
2022-12-20T08:27:48.075Z,100349.03
2022-12-20T08:30:15.937Z,100346.34
2022-12-20T08:32:43.447Z,100335.94
2022-12-20T08:35:13.280Z,100337.28
2022-12-20T08:37:40.847Z,100336.03
2022-12-20T08:40:09.657Z,100332.34
2022-12-20T08:42:37.125Z,100330.06
2022-12-20T08:45:05.410Z,100319.13
2022-12-20T08:47:33.072Z,100331.88
2022-12-20T08:50:01.304Z,100328.06
2022-12-20T08:52:31.196Z,100304.75
2022-12-20T08:55:01.431Z,100302.25
2022-12-20T08:57:30.790Z,100304.03
2022-12-20T08:59:58.493Z,100303.47
2022-12-20T09:02:26.534Z,100301.38
2022-12-20T09:04:54.393Z,100305.47
2022-12-20T09:07:21.874Z,100300.22
2022-12-20T09:09:49.442Z,100286.34
2022-12-20T09:12:16.951Z,100279.13
2022-12-20T09:14:45.299Z,100271.44
2022-12-20T09:17:12.907Z,100267.28
2022-12-20T09:19:40.466Z,100252.97
2022-12-20T09:22:08.891Z,100253.38
2022-12-20T09:24:38.108Z,100258.56
2022-12-20T09:27:05.687Z,100263.03
2022-12-20T09:29:35.702Z,100234.66
2022-12-20T09:32:04.133Z,100244.00
2022-12-20T09:34:31.695Z,100242.22
2022-12-20T09:36:59.305Z,100221.72
2022-12-20T09:39:26.876Z,100219.22
2022-12-20T09:41:54.527Z,100215.06
2022-12-20T09:44:25.043Z,100217.25
2022-12-20T09:47:04.913Z,100212.41
2022-12-20T09:49:40.245Z,100198.06
2022-12-20T09:52:13.572Z,100196.44
2022-12-20T09:55:02.957Z,100188.44
2022-12-20T09:57:55.490Z,100184.16
2022-12-20T10:00:23.095Z,100179.88
2022-12-20T10:03:08.291Z,100179.59
2022-12-20T10:05:50.264Z,100168.97
2022-12-20T10:08:32.952Z,100162.00
2022-12-20T10:11:13.200Z,100169.09
2022-12-20T10:14:19.429Z,100155.38
2022-12-20T10:16:53.945Z,100145.75
2022-12-20T10:19:24.409Z,100143.84
2022-12-20T10:21:58.007Z,100141.47
2022-12-20T10:24:31.355Z,100137.31
2022-12-20T10:27:12.088Z,100127.00
2022-12-20T10:29:40.383Z,100123.44
2022-12-20T10:32:23.323Z,100122.25
2022-12-20T10:35:20.235Z,100119.28
2022-12-20T10:38:17.762Z,100122.22
2022-12-20T10:41:20.653Z,100104.19
2022-12-20T10:43:54.075Z,100101.38
2022-12-20T10:46:22.334Z,100108.59
2022-12-20T10:48:51.000Z,100099.78
2022-12-20T10:51:23.202Z,100092.97
2022-12-20T10:54:02.536Z,100085.97
2022-12-20T10:56:36.516Z,100080.22
2022-12-20T10:59:36.976Z,100085.28
2022-12-20T11:02:38.789Z,100079.34
2022-12-20T11:05:10.779Z,100072.72
2022-12-20T11:08:24.758Z,100069.41
2022-12-20T11:10:39.273Z,100059.28
2022-12-20T11:13:06.907Z,100068.47
2022-12-20T11:15:36.434Z,100060.81
2022-12-20T11:18:31.679Z,100072.94
2022-12-20T11:21:27.909Z,100072.03
2022-12-20T11:24:02.862Z,100062.41
2022-12-20T11:26:42.354Z,100061.31
2022-12-20T11:29:30.439Z,100057.13
2022-12-20T11:32:26.817Z,100045.25
2022-12-20T11:35:38.621Z,100046.28
2022-12-20T11:38:15.033Z,100049.09
2022-12-20T11:40:59.779Z,100040.31
2022-12-20T11:44:23.121Z,100044.78
2022-12-20T11:46:57.438Z,100045.06
2022-12-20T11:49:31.490Z,100047.78
2022-12-20T11:52:12.206Z,100043.72
2022-12-20T11:54:53.759Z,100041.06
2022-12-20T11:57:28.180Z,100048.22
2022-12-20T12:00:00.280Z,100040.00
2022-12-20T12:02:58.446Z,100041.66
2022-12-20T12:05:47.370Z,100044.22
2022-12-20T12:08:47.055Z,100040.72
2022-12-20T12:14:38.637Z,100021.84
2022-12-20T12:17:12.923Z,100027.16
2022-12-20T12:19:46.800Z,100039.25
2022-12-20T12:22:25.010Z,100029.66
2022-12-20T12:25:00.214Z,100039.56
2022-12-20T12:27:28.618Z,100036.59
2022-12-20T12:29:58.912Z,100033.19
2022-12-20T12:32:31.403Z,100037.16
2022-12-20T12:35:24.075Z,100039.84
2022-12-20T12:38:09.765Z,100034.66
2022-12-20T12:41:04.287Z,100040.59
2022-12-20T12:43:40.995Z,100040.72
2022-12-20T12:46:16.711Z,100035.09
2022-12-20T12:49:15.701Z,100030.69
2022-12-20T12:51:52.268Z,100033.63
2022-12-20T12:54:30.939Z,100032.88
2022-12-20T12:57:06.922Z,100037.47
2022-12-20T12:59:34.475Z,100030.97
2022-12-20T13:02:14.288Z,100042.50
2022-12-20T13:05:02.100Z,100036.00
2022-12-20T13:07:33.451Z,100028.13
2022-12-20T13:10:10.188Z,100036.41
2022-12-20T13:12:40.990Z,100041.16
2022-12-20T13:15:21.211Z,100039.25
2022-12-20T13:17:59.087Z,100030.69
2022-12-20T13:20:27.920Z,100030.97
2022-12-20T13:23:11.686Z,100032.31
2022-12-20T13:25:45.923Z,100030.69
2022-12-20T13:28:19.017Z,100019.59
2022-12-20T13:30:47.963Z,100021.53
2022-12-20T13:33:24.411Z,100022.28
2022-12-20T13:35:55.577Z,100025.53
2022-12-20T13:38:48.148Z,100029.34
2022-12-20T13:41:34.845Z,100020.06
2022-12-20T13:44:14.983Z,100027.44
2022-12-20T13:46:47.245Z,100018.75
2022-12-20T13:49:43.895Z,100020.38
2022-12-20T13:52:11.427Z,100030.81
2022-12-20T13:54:49.054Z,100018.88
2022-12-20T13:57:17.567Z,100034.22
2022-12-20T13:59:49.935Z,100018.56
2022-12-20T14:02:25.265Z,100025.81
2022-12-20T14:05:02.104Z,100014.00
2022-12-20T14:07:32.979Z,100025.34
2022-12-20T14:10:17.965Z,100020.47
2022-12-20T14:12:46.471Z,100016.34
2022-12-20T14:15:28.423Z,100014.44
2022-12-20T14:17:56.804Z,100005.28
2022-12-20T14:20:26.759Z,100013.41
2022-12-20T14:23:18.689Z,100013.25
2022-12-20T14:26:01.829Z,100000.84
2022-12-20T14:28:35.756Z,100003.50
2022-12-20T14:31:04.436Z,99989.34
2022-12-20T14:33:36.647Z,99995.09
2022-12-20T14:36:31.827Z,99993.88
2022-12-20T14:38:59.536Z,99995.78
2022-12-20T14:41:36.425Z,99997.41
2022-12-20T14:44:25.086Z,99995.03
2022-12-20T14:46:54.412Z,99999.59
2022-12-20T14:49:24.295Z,100011.09
2022-12-20T14:51:52.870Z,100006.66
2022-12-20T14:57:24.759Z,100010.81
2022-12-20T15:00:14.928Z,100011.25
2022-12-20T15:02:50.812Z,100008.13
2022-12-20T15:05:37.753Z,100010.38
2022-12-20T15:08:27.480Z,100010.38
2022-12-20T15:11:10.722Z,100012.00
2022-12-20T15:13:55.721Z,100013.00
2022-12-20T15:16:28.106Z,100013.00
2022-12-20T15:18:58.558Z,100012.38
2022-12-20T15:21:40.572Z,100024.06
2022-12-20T15:24:14.337Z,100020.19
2022-12-20T15:26:41.956Z,100016.19
2022-12-20T15:29:24.145Z,100021.22
2022-12-20T15:32:15.476Z,100018.69
2022-12-20T15:34:43.191Z,100013.25
2022-12-20T15:37:18.287Z,100015.75
2022-12-20T15:39:46.572Z,100015.16
2022-12-20T15:42:18.235Z,100019.28
2022-12-20T15:44:46.421Z,100020.19
2022-12-20T15:47:17.089Z,100017.81
2022-12-20T15:49:49.891Z,100006.28
2022-12-20T15:52:25.845Z,100008.69
2022-12-20T15:54:53.311Z,100000.97
2022-12-20T15:57:21.037Z,99993.63
2022-12-20T16:00:00.295Z,99999.50
2022-12-20T16:02:32.893Z,100000.97
2022-12-20T16:05:01.728Z,100001.72
2022-12-20T16:07:30.753Z,100002.47
2022-12-20T16:09:58.332Z,99998.34
2022-12-20T16:12:29.029Z,99995.97
2022-12-20T16:14:57.097Z,100002.91
2022-12-20T16:17:24.818Z,100004.69
2022-12-20T16:19:52.537Z,100004.09
2022-12-20T16:22:22.460Z,100005.47
2022-12-20T16:24:50.694Z,100000.44
2022-12-20T16:27:18.246Z,99995.28
2022-12-20T16:29:45.883Z,99993.38
2022-12-20T16:32:15.706Z,99998.41
2022-12-20T16:34:44.403Z,99985.19
2022-12-20T16:37:12.194Z,99980.72
2022-12-20T16:39:40.103Z,99996.97
2022-12-20T16:42:17.174Z,99989.31
2022-12-20T16:44:46.019Z,99990.19
2022-12-20T16:47:14.948Z,99989.47
2022-12-20T16:49:51.736Z,99990.50
2022-12-20T16:52:22.119Z,99996.53
2022-12-20T16:54:50.559Z,99987.25
2022-12-20T16:57:18.206Z,100001.13
2022-12-20T16:59:45.801Z,100006.16
2022-12-20T17:02:32.805Z,100001.56
2022-12-20T17:05:00.906Z,100009.69
2022-12-20T17:07:30.543Z,100003.91
2022-12-20T17:09:59.190Z,100008.06
2022-12-20T17:12:26.868Z,100004.38
2022-12-20T17:14:54.406Z,99991.50
2022-12-20T17:17:22.053Z,100005.81
2022-12-20T17:19:49.575Z,100008.78
2022-12-20T17:22:24.738Z,100009.06
2022-12-20T17:24:54.601Z,100009.94
2022-12-20T17:27:22.218Z,99999.63
2022-12-20T17:29:50.895Z,99982.19
2022-12-20T17:32:21.966Z,99990.91
2022-12-20T17:34:50.251Z,99983.50
2022-12-20T17:37:18.111Z,99994.28
2022-12-20T17:39:45.845Z,99997.84
2022-12-20T17:42:14.092Z,99991.47
2022-12-20T17:44:41.692Z,99997.97
2022-12-20T17:47:11.831Z,99989.97
2022-12-20T17:49:39.535Z,99996.50
2022-12-20T17:52:15.695Z,99992.94
2022-12-20T17:54:43.552Z,100003.13
2022-12-20T17:57:16.410Z,99997.50
2022-12-20T17:59:44.509Z,99989.69
2022-12-20T18:02:19.999Z,99990.72
2022-12-20T18:04:47.908Z,99987.59
2022-12-20T18:07:15.401Z,99986.13
2022-12-20T18:09:42.950Z,99996.63
2022-12-20T18:12:11.024Z,100000.47
2022-12-20T18:14:38.589Z,99984.56
2022-12-20T18:17:06.110Z,99994.56
2022-12-20T18:19:33.722Z,100002.25
2022-12-20T18:22:01.585Z,100006.38
2022-12-20T18:24:29.234Z,99994.25
2022-12-20T18:26:56.760Z,99997.50
2022-12-20T18:29:24.260Z,99991.13
2022-12-20T18:31:51.839Z,99991.44
2022-12-20T18:34:19.602Z,99992.16
2022-12-20T18:36:47.050Z,99981.41
2022-12-20T18:39:14.767Z,99980.53
2022-12-20T18:41:44.312Z,99981.81
2022-12-20T18:44:12.145Z,99984.47
2022-12-20T18:46:40.949Z,99990.44
2022-12-20T18:49:09.868Z,99976.09
2022-12-20T18:51:37.384Z,99979.22
2022-12-20T18:54:07.256Z,99981.56
2022-12-20T18:56:37.596Z,99980.69
2022-12-20T18:59:11.262Z,99983.59
2022-12-20T19:01:41.821Z,99979.78
2022-12-20T19:04:10.505Z,99979.03
2022-12-20T19:06:38.799Z,99990.09
2022-12-20T19:09:10.370Z,99979.19
2022-12-20T19:11:38.117Z,99982.16
2022-12-20T19:14:06.218Z,99979.47
2022-12-20T19:16:34.520Z,99989.09
2022-12-20T19:19:03.257Z,99989.22
2022-12-20T19:21:42.017Z,99993.06
2022-12-20T19:24:11.374Z,100001.34
2022-12-20T19:26:39.840Z,99997.94
2022-12-20T19:29:11.689Z,100003.50
2022-12-20T19:31:39.243Z,99993.34
2022-12-20T19:34:09.162Z,99997.03
2022-12-20T19:36:42.008Z,99992.19
2022-12-20T19:39:28.973Z,99995.91
2022-12-20T19:42:23.147Z,99986.88
2022-12-20T19:44:45.092Z,100001.09
2022-12-20T19:47:13.338Z,99999.16
2022-12-20T19:49:40.954Z,99995.50
2022-12-20T19:52:08.511Z,99995.78
2022-12-20T19:54:36.032Z,99987.09
2022-12-20T19:57:03.675Z,99994.50
2022-12-20T19:59:31.575Z,99995.25
2022-12-20T20:01:59.322Z,99990.97
2022-12-20T20:04:27.548Z,99995.53
2022-12-20T20:06:56.489Z,99990.81
2022-12-20T20:09:24.098Z,100002.34
2022-12-20T20:11:51.849Z,99999.53
2022-12-20T20:14:19.417Z,100010.63
2022-12-20T20:16:46.958Z,100007.06
2022-12-20T20:19:14.770Z,99999.69
2022-12-20T20:21:42.397Z,100011.50
2022-12-20T20:24:10.242Z,99999.69
2022-12-20T20:26:38.105Z,99994.66
2022-12-20T20:29:07.337Z,99999.97
2022-12-20T20:31:34.953Z,100003.66
2022-12-20T20:34:03.129Z,100006.59
2022-12-20T20:36:30.719Z,99996.56
2022-12-20T20:38:58.722Z,100001.56
2022-12-20T20:41:26.335Z,100001.56
2022-12-20T20:43:53.828Z,99995.38
2022-12-20T20:46:21.706Z,99997.13
2022-12-20T20:48:49.204Z,99999.22
2022-12-20T20:51:16.893Z,99988.28
2022-12-20T20:53:44.422Z,99996.66
2022-12-20T20:56:12.130Z,99999.19
2022-12-20T20:58:39.834Z,100002.28
2022-12-20T21:01:08.883Z,99999.91
2022-12-20T21:03:37.395Z,100002.56
2022-12-20T21:06:38.647Z,100004.47
2022-12-20T21:08:55.756Z,99996.63
2022-12-20T21:11:23.580Z,99997.84
2022-12-20T21:13:51.167Z,100004.28
2022-12-20T21:16:22.623Z,100004.16
2022-12-20T21:18:55.187Z,100012.28
2022-12-20T21:21:24.626Z,100019.94
2022-12-20T21:23:53.233Z,100009.63
2022-12-20T21:26:22.276Z,100022.78
2022-12-20T21:28:49.879Z,100024.06
2022-12-20T21:31:19.569Z,100011.38
2022-12-20T21:33:47.390Z,100018.47
2022-12-20T21:36:17.268Z,100008.25
2022-12-20T21:38:56.229Z,100007.50
2022-12-20T21:41:26.199Z,100005.16
2022-12-20T21:43:58.335Z,100000.69
2022-12-20T21:46:27.863Z,100012.56
2022-12-20T21:48:55.741Z,100001.31
2022-12-20T21:51:25.652Z,99996.41
2022-12-20T21:53:58.343Z,99990.66
2022-12-20T21:56:28.085Z,100002.19
2022-12-20T21:58:55.732Z,100002.78
2022-12-20T22:01:26.484Z,100005.56
2022-12-20T22:04:06.687Z,99999.66
2022-12-20T22:06:34.899Z,99995.22
2022-12-20T22:09:07.474Z,100001.28
2022-12-20T22:11:35.324Z,99997.13
2022-12-20T22:14:02.870Z,100000.69
2022-12-20T22:16:32.446Z,100002.59
2022-12-20T22:19:00.797Z,99994.44
2022-12-20T22:21:31.562Z,99991.50
2022-12-20T22:24:00.577Z,99991.75
2022-12-20T22:26:30.553Z,99995.28
2022-12-20T22:29:01.244Z,99993.81
2022-12-20T22:31:29.342Z,99982.72
2022-12-20T22:33:57.972Z,99989.34
2022-12-20T22:36:25.933Z,99993.78
2022-12-20T22:38:55.445Z,99989.16
2022-12-20T22:41:26.585Z,99982.91
2022-12-20T22:43:54.512Z,99981.59
2022-12-20T22:46:22.183Z,99980.53
2022-12-20T22:48:49.744Z,99977.56
2022-12-20T22:51:20.446Z,99970.91
2022-12-20T22:53:49.471Z,99981.72
2022-12-20T22:56:19.602Z,99981.25
2022-12-20T22:58:48.132Z,99980.66
2022-12-20T23:01:17.627Z,99975.63
2022-12-20T23:03:46.029Z,99980.03
2022-12-20T23:06:15.969Z,99976.63
2022-12-20T23:08:44.230Z,99973.63
2022-12-20T23:11:35.338Z,99968.28
2022-12-20T23:14:22.647Z,99968.41
2022-12-20T23:16:50.766Z,99962.81
2022-12-20T23:19:18.364Z,99957.66
2022-12-20T23:22:04.604Z,99957.94
2022-12-20T23:24:32.125Z,99952.75
2022-12-20T23:26:59.788Z,99955.69
2022-12-20T23:29:27.430Z,99954.56
2022-12-20T23:31:54.950Z,99950.66
2022-12-20T23:34:23.348Z,99949.78
2022-12-20T23:36:51.785Z,99956.44
2022-12-20T23:39:19.231Z,99958.53
2022-12-20T23:41:46.769Z,99964.06
2022-12-20T23:44:14.269Z,99952.81
2022-12-20T23:46:41.812Z,99955.06
2022-12-20T23:49:09.313Z,99955.81
2022-12-20T23:51:36.821Z,99958.78
2022-12-20T23:54:04.579Z,99955.53
2022-12-20T23:56:32.084Z,99948.16
2022-12-20T23:58:59.621Z,99959.91
